Time;durP1;ratioP1;P1;durP2;ratioP2;P2;SDS_P1;SDS_P2;PMS_P1;PMS_P2;Temp;Humidity;BMP_temperature;BMP_pressure;BME280_temperature;BME280_humidity;BME280_pressure;Samples;Min_cycle;Max_cycle;Signal;HPM_P1;HPM_P2
2023/03/13 00:00:59;;;;;;;0.63;0.63;;;;;;;2.24;95.25;99585.06;5090018;28;20194;-62
2023/03/13 00:03:27;;;;;;;1.13;0.80;;;;;;;2.27;94.97;99587.53;5090216;28;20225;-62
2023/03/13 00:05:57;;;;;;;0.60;0.60;;;;;;;2.14;95.70;99588.75;5090100;28;20202;-58
2023/03/13 00:08:24;;;;;;;1.20;1.03;;;;;;;2.05;96.58;99587.34;5090166;28;20431;-58
2023/03/13 00:10:52;;;;;;;0.90;0.70;;;;;;;2.06;96.35;99590.69;5089856;28;20391;-58
2023/03/13 00:13:19;;;;;;;1.07;0.90;;;;;;;2.03;96.39;99599.97;5090027;28;20222;-62
2023/03/13 00:15:45;;;;;;;0.63;0.63;;;;;;;2.03;96.13;99602.50;5089875;28;20569;-62
2023/03/13 00:18:12;;;;;;;0.43;0.43;;;;;;;2.01;96.08;99599.22;5089950;28;20720;-62
2023/03/13 00:20:39;;;;;;;2.43;1.03;;;;;;;2.00;96.08;99597.53;5089737;28;20202;-62
2023/03/13 00:23:08;;;;;;;0.60;0.60;;;;;;;1.98;96.46;99598.50;5089779;28;20218;-62
2023/03/13 00:25:34;;;;;;;0.50;0.50;;;;;;;1.92;96.77;99599.50;5089915;28;20198;-58
2023/03/13 00:28:01;;;;;;;0.93;0.77;;;;;;;1.88;96.88;99592.84;5089003;28;20254;-62
2023/03/13 00:30:28;;;;;;;1.13;0.57;;;;;;;1.84;97.29;99591.31;5089552;28;20202;-63
2023/03/13 00:32:55;;;;;;;1.03;0.60;;;;;;;1.86;97.16;99599.63;5089753;28;20241;-62
2023/03/13 00:35:22;;;;;;;0.77;0.67;;;;;;;1.80;97.24;99599.81;5089395;28;20206;-58
2023/03/13 00:37:48;;;;;;;0.80;0.80;;;;;;;1.75;97.51;99606.69;5089822;28;20366;-62
2023/03/13 00:40:19;;;;;;;0.50;0.50;;;;;;;1.66;98.49;99604.41;5089359;28;20194;-62
2023/03/13 00:42:45;;;;;;;0.50;0.50;;;;;;;1.51;98.77;99593.91;5089923;28;20222;-58
2023/03/13 00:45:12;;;;;;;1.20;0.60;;;;;;;1.46;98.88;99598.22;5089518;28;20206;-62
2023/03/13 00:47:39;;;;;;;0.40;0.40;;;;;;;1.21;99.80;99594.69;5089569;28;20218;-58
2023/03/13 00:50:07;;;;;;;0.30;0.30;;;;;;;1.21;100.00;99594.69;5089210;28;20193;-58
2023/03/13 00:52:33;;;;;;;0.90;0.73;;;;;;;1.25;100.00;99598.78;5089358;28;20218;-58
2023/03/13 00:55:00;;;;;;;1.73;1.00;;;;;;;1.20;100.00;99598.09;5089524;28;20209;-58
2023/03/13 00:57:28;;;;;;;0.80;0.50;;;;;;;1.12;100.00;99596.59;5089744;28;20228;-58
2023/03/13 00:59:55;;;;;;;0.53;0.53;;;;;;;1.03;100.00;99601.84;5089190;28;20205;-58
2023/03/13 01:02:22;;;;;;;0.60;0.60;;;;;;;0.96;100.00;99595.34;5089754;28;20248;-58
2023/03/13 01:04:49;;;;;;;0.57;0.57;;;;;;;0.89;100.00;99596.34;5089200;28;20205;-58
2023/03/13 01:07:16;;;;;;;1.30;0.83;;;;;;;0.83;100.00;99596.50;5089514;28;20214;-62
2023/03/13 01:09:42;;;;;;;0.60;0.60;;;;;;;0.80;100.00;99594.03;5089360;28;20205;-58
2023/03/13 01:12:09;;;;;;;0.97;0.70;;;;;;;0.80;100.00;99596.56;5089257;28;20222;-58
2023/03/13 01:14:38;;;;;;;0.27;0.27;;;;;;;0.78;100.00;99601.63;5089194;28;20693;-58
2023/03/13 01:17:05;;;;;;;2.00;0.70;;;;;;;0.72;100.00;99598.44;5089308;28;20701;-58
2023/03/13 01:19:31;;;;;;;0.80;0.70;;;;;;;0.72;100.00;99606.81;5089272;28;20306;-62
2023/03/13 01:21:58;;;;;;;0.57;0.57;;;;;;;0.65;100.00;99613.69;5089134;28;20190;-62
2023/03/13 01:24:25;;;;;;;0.73;0.67;;;;;;;0.55;100.00;99604.66;5089417;28;20205;-59
2023/03/13 01:26:52;;;;;;;0.50;0.50;;;;;;;0.58;100.00;99609.66;5089146;28;20194;-62
2023/03/13 01:29:19;;;;;;;0.87;0.73;;;;;;;0.53;100.00;99606.41;5089093;28;20213;-58
2023/03/13 01:31:47;;;;;;;0.73;0.70;;;;;;;0.55;100.00;99614.72;5089219;28;20201;-58
2023/03/13 01:34:14;;;;;;;0.50;0.50;;;;;;;0.50;100.00;99609.00;5089053;28;20226;-59
2023/03/13 01:36:40;;;;;;;0.83;0.83;;;;;;;0.51;100.00;99608.13;5089224;28;20221;-62
2023/03/13 01:39:07;;;;;;;1.03;0.40;;;;;;;0.45;100.00;99608.28;5090314;28;20237;-58
2023/03/13 01:41:35;;;;;;;0.60;0.60;;;;;;;0.43;100.00;99610.00;5092750;28;20201;-58
2023/03/13 01:44:01;;;;;;;0.53;0.50;;;;;;;0.41;100.00;99616.75;5092728;28;20222;-59
2023/03/13 01:46:28;;;;;;;0.20;0.20;;;;;;;0.44;100.00;99611.66;5092795;28;20206;-62
2023/03/13 01:49:03;;;;;;;0.37;0.37;;;;;;;0.45;100.00;99613.31;5092654;28;20217;-62
2023/03/13 01:51:35;;;;;;;0.30;0.30;;;;;;;0.47;100.00;99615.78;5092542;28;20197;-62
2023/03/13 01:54:07;;;;;;;0.20;0.20;;;;;;;0.33;100.00;99611.06;5092585;28;20229;-62
2023/03/13 01:56:38;;;;;;;0.37;0.37;;;;;;;0.31;100.00;99618.63;5092620;28;20213;-62
2023/03/13 01:59:08;;;;;;;0.50;0.50;;;;;;;0.26;100.00;99617.06;5092549;28;20225;-62
2023/03/13 02:01:36;;;;;;;0.33;0.33;;;;;;;0.19;100.00;99616.41;5092507;28;20202;-62
2023/03/13 02:04:05;;;;;;;0.20;0.20;;;;;;;0.18;100.00;99624.81;5092368;28;20738;-58
2023/03/13 02:06:36;;;;;;;0.67;0.67;;;;;;;0.19;100.00;99629.78;5092086;28;20552;-62
2023/03/13 02:09:06;;;;;;;0.50;0.50;;;;;;;0.14;100.00;99639.09;5092092;28;20225;-58
2023/03/13 02:11:43;;;;;;;0.40;0.40;;;;;;;0.10;100.00;99642.56;5092001;28;20202;-58
2023/03/13 02:14:11;;;;;;;0.10;0.10;;;;;;;-0.01;100.00;99640.25;5092117;28;20233;-61
2023/03/13 02:16:39;;;;;;;0.33;0.33;;;;;;;0.01;100.00;99642.75;5092258;28;20198;-62
2023/03/13 02:19:18;;;;;;;0.37;0.37;;;;;;;0.03;100.00;99646.06;5092047;28;20260;-58
2023/03/13 02:21:52;;;;;;;0.40;0.40;;;;;;;0.05;100.00;99639.31;5091939;28;20209;-58
2023/03/13 02:24:30;;;;;;;0.60;0.60;;;;;;;0.00;100.00;99643.63;5091926;28;20213;-62
2023/03/13 02:26:59;;;;;;;0.40;0.40;;;;;;;-0.03;100.00;99651.19;5092261;28;20462;-62
2023/03/13 02:29:26;;;;;;;1.07;0.97;;;;;;;-0.04;100.00;99657.09;5092235;28;20205;-62
2023/03/13 02:31:53;;;;;;;0.20;0.20;;;;;;;-0.02;100.00;99658.72;5091773;28;20202;-62
2023/03/13 02:34:24;;;;;;;0.70;0.70;;;;;;;-0.03;100.00;99666.28;5091654;28;20197;-62
2023/03/13 02:36:52;;;;;;;0.80;0.80;;;;;;;-0.11;100.00;99663.09;5091824;28;20206;-62
2023/03/13 02:39:22;;;;;;;0.20;0.20;;;;;;;-0.17;100.00;99663.22;5091544;28;20241;-58
2023/03/13 02:41:51;;;;;;;0.60;0.60;;;;;;;-0.24;100.00;99670.84;5091630;28;20198;-62
2023/03/13 02:44:19;;;;;;;0.30;0.30;;;;;;;-0.23;100.00;99674.22;5091524;28;20674;-58
2023/03/13 02:46:49;;;;;;;0.30;0.30;;;;;;;-0.28;100.00;99676.81;5091369;28;20193;-58
2023/03/13 02:49:24;;;;;;;0.50;0.50;;;;;;;-0.29;100.00;99675.16;5091371;28;20570;-58
2023/03/13 02:51:53;;;;;;;0.73;0.47;;;;;;;-0.29;100.00;99680.19;5090317;28;20198;-62
2023/03/13 02:54:23;;;;;;;0.20;0.20;;;;;;;-0.26;100.00;99689.34;5091655;28;20225;-59
2023/03/13 02:56:55;;;;;;;0.60;0.57;;;;;;;-0.23;100.00;99679.25;5091562;28;20221;-58
2023/03/13 02:59:24;;;;;;;0.43;0.43;;;;;;;-0.25;100.00;99681.78;5091178;28;20230;-58
2023/03/13 03:01:51;;;;;;;0.40;0.40;;;;;;;-0.32;100.00;99680.25;5091349;28;20198;-58
2023/03/13 03:04:20;;;;;;;0.40;0.40;;;;;;;-0.22;100.00;99675.03;5091202;28;20686;-62
2023/03/13 03:06:47;;;;;;;0.40;0.40;;;;;;;-0.28;100.00;99671.78;5091063;28;20232;-58
2023/03/13 03:09:13;;;;;;;0.40;0.40;;;;;;;-0.28;100.00;99675.97;5091038;28;20710;-58
2023/03/13 03:11:40;;;;;;;0.90;0.80;;;;;;;-0.32;100.00;99685.28;5091384;28;20202;-62
2023/03/13 03:14:07;;;;;;;0.10;0.10;;;;;;;-0.31;100.00;99686.91;5090905;28;20732;-59
2023/03/13 03:16:36;;;;;;;0.73;0.70;;;;;;;-0.38;100.00;99690.38;5090880;28;20202;-62
2023/03/13 03:19:02;;;;;;;0.20;0.20;;;;;;;-0.41;100.00;99695.47;5090682;28;20273;-58
2023/03/13 03:21:29;;;;;;;0.47;0.47;;;;;;;-0.41;100.00;99697.16;5090746;28;20203;-58
2023/03/13 03:23:56;;;;;;;0.30;0.30;;;;;;;-0.42;100.00;99698.84;5090844;28;20233;-62
2023/03/13 03:26:23;;;;;;;1.43;0.80;;;;;;;-0.49;100.00;99700.63;5090741;28;20198;-62
2023/03/13 03:28:50;;;;;;;0.57;0.57;;;;;;;-0.54;100.00;99707.41;5090669;28;20226;-62
2023/03/13 03:31:17;;;;;;;1.13;0.80;;;;;;;-0.58;100.00;99702.44;5090670;28;20198;-58
2023/03/13 03:33:46;;;;;;;0.10;0.10;;;;;;;-0.61;100.00;99703.38;5090658;28;20406;-58
2023/03/13 03:36:15;;;;;;;0.60;0.60;;;;;;;-0.60;100.00;99709.22;5090403;28;20217;-62
2023/03/13 03:38:42;;;;;;;0.10;0.10;;;;;;;-0.59;100.00;99713.38;5090677;28;20238;-58
2023/03/13 03:41:11;;;;;;;0.20;0.20;;;;;;;-0.64;100.00;99722.66;5090122;28;20212;-58
2023/03/13 03:43:38;;;;;;;0.30;0.30;;;;;;;-0.65;100.00;99721.00;5090393;28;20694;-62
2023/03/13 03:46:05;;;;;;;1.50;0.70;;;;;;;-0.66;100.00;99730.22;5090316;28;20213;-58
2023/03/13 03:48:32;;;;;;;0.53;0.50;;;;;;;-0.68;100.00;99735.25;5090262;28;20217;-62
2023/03/13 03:51:00;;;;;;;0.17;0.17;;;;;;;-0.63;100.00;99734.38;5090294;28;20194;-62
2023/03/13 03:53:27;;;;;;;0.67;0.67;;;;;;;-0.54;100.00;99745.09;5090319;28;20460;-62
2023/03/13 03:55:54;;;;;;;0.77;0.40;;;;;;;-0.48;100.00;99749.19;5090314;28;20590;-58
2023/03/13 03:58:21;;;;;;;0.23;0.23;;;;;;;-0.40;100.00;99757.44;5089861;28;20694;-61
2023/03/13 04:00:48;;;;;;;0.40;0.40;;;;;;;-0.35;100.00;99770.75;5090158;28;20198;-62
2023/03/13 04:03:16;;;;;;;0.33;0.33;;;;;;;-0.38;100.00;99775.78;5090104;28;20685;-58
2023/03/13 04:05:43;;;;;;;0.83;0.57;;;;;;;-0.48;100.00;99775.13;5090049;28;20271;-58
2023/03/13 04:08:12;;;;;;;0.50;0.50;;;;;;;-0.42;100.00;99779.22;5090061;28;20487;-62
2023/03/13 04:10:39;;;;;;;0.33;0.33;;;;;;;-0.46;100.00;99782.66;5089895;28;20712;-62
2023/03/13 04:13:06;;;;;;;0.23;0.23;;;;;;;-0.51;100.00;99794.44;5089751;28;20226;-62
2023/03/13 04:15:33;;;;;;;1.20;0.40;;;;;;;-0.49;100.00;99798.59;5090026;28;20205;-62
2023/03/13 04:17:59;;;;;;;0.43;0.33;;;;;;;-0.46;100.00;99801.06;5089991;28;20244;-58
2023/03/13 04:20:27;;;;;;;0.83;0.83;;;;;;;-0.47;100.00;99811.09;5089649;28;20221;-59
2023/03/13 04:22:54;;;;;;;0.90;0.90;;;;;;;-0.47;100.00;99803.56;5089464;28;20232;-58
2023/03/13 04:25:22;;;;;;;1.43;0.73;;;;;;;-0.41;100.00;99807.69;5089600;28;20208;-61
2023/03/13 04:27:49;;;;;;;0.33;0.33;;;;;;;-0.45;100.00;99811.94;5089387;28;20521;-61
2023/03/13 04:30:16;;;;;;;0.93;0.93;;;;;;;-0.44;100.00;99816.09;5089768;28;20198;-62
2023/03/13 04:32:43;;;;;;;0.43;0.43;;;;;;;-0.41;100.00;99816.03;5089417;28;20526;-62
2023/03/13 04:35:10;;;;;;;0.60;0.60;;;;;;;-0.42;100.00;99828.63;5089622;28;20316;-62
2023/03/13 04:37:37;;;;;;;0.37;0.37;;;;;;;-0.42;100.00;99824.44;5089362;28;20213;-62
2023/03/13 04:40:05;;;;;;;0.40;0.40;;;;;;;-0.38;100.00;99836.09;5089344;28;20244;-58
2023/03/13 04:42:34;;;;;;;1.27;0.83;;;;;;;-0.31;100.00;99829.31;5089632;28;20662;-62
2023/03/13 04:45:01;;;;;;;0.80;0.80;;;;;;;-0.28;100.00;99835.09;5089496;28;20194;-62
2023/03/13 04:47:27;;;;;;;1.03;0.53;;;;;;;-0.24;100.00;99841.72;5089325;28;20217;-62
2023/03/13 04:49:54;;;;;;;0.10;0.10;;;;;;;-0.26;100.00;99843.44;5089247;28;20206;-62
2023/03/13 04:52:21;;;;;;;0.30;0.20;;;;;;;-0.28;100.00;99837.63;5089442;28;20222;-58
2023/03/13 04:54:49;;;;;;;0.67;0.67;;;;;;;-0.22;100.00;99845.91;5089436;28;20206;-62
2023/03/13 04:57:16;;;;;;;0.30;0.30;;;;;;;-0.22;100.00;99845.91;5089704;28;20221;-58
2023/03/13 04:59:45;;;;;;;0.87;0.87;;;;;;;-0.30;100.00;99839.31;5089117;28;20226;-62
2023/03/13 05:02:12;;;;;;;0.80;0.80;;;;;;;-0.30;100.00;99844.34;5089175;28;20214;-62
2023/03/13 05:04:39;;;;;;;0.40;0.40;;;;;;;-0.14;100.00;99849.13;5089535;28;20198;-62
2023/03/13 05:07:06;;;;;;;0.30;0.30;;;;;;;0.02;100.00;99860.59;5089534;28;20208;-58
2023/03/13 05:09:33;;;;;;;0.30;0.30;;;;;;;0.13;100.00;99863.75;5089315;28;20206;-58
2023/03/13 05:11:59;;;;;;;0.10;0.10;;;;;;;0.19;100.00;99863.63;5089270;28;20198;-62
2023/03/13 05:14:27;;;;;;;0.50;0.50;;;;;;;0.46;100.00;99864.00;5091234;28;20205;-61
2023/03/13 05:16:55;;;;;;;0.67;0.50;;;;;;;0.76;100.00;99864.28;5093196;28;20615;-62
2023/03/13 05:19:22;;;;;;;1.10;0.73;;;;;;;1.03;99.86;99867.94;5093208;28;20236;-62
2023/03/13 05:21:48;;;;;;;0.40;0.40;;;;;;;1.31;97.92;99878.25;5093013;28;20202;-62
2023/03/13 05:24:15;;;;;;;1.37;0.83;;;;;;;1.63;95.38;99876.69;5093329;28;20660;-62
2023/03/13 05:26:42;;;;;;;0.60;0.60;;;;;;;1.93;93.41;99877.69;5092933;28;20194;-58
2023/03/13 05:29:09;;;;;;;0.37;0.37;;;;;;;2.23;91.62;99881.13;5093115;28;20226;-62
2023/03/13 05:31:36;;;;;;;1.67;0.83;;;;;;;2.53;89.42;99883.72;5092954;28;20590;-58
2023/03/13 05:34:04;;;;;;;0.43;0.43;;;;;;;2.66;88.31;99880.84;5092830;28;20241;-62
2023/03/13 05:36:31;;;;;;;0.27;0.27;;;;;;;2.65;88.16;99888.47;5092677;28;20202;-58
2023/03/13 05:38:58;;;;;;;0.90;0.80;;;;;;;2.90;87.91;99889.41;5092802;28;20222;-63
2023/03/13 05:41:24;;;;;;;1.27;1.17;;;;;;;3.12;86.28;99886.31;5092719;28;20198;-63
2023/03/13 05:43:51;;;;;;;1.10;1.00;;;;;;;3.17;84.83;99884.44;5092795;28;20218;-58
2023/03/13 05:46:18;;;;;;;1.03;0.80;;;;;;;3.48;84.82;99891.97;5092630;28;20591;-58
2023/03/13 05:48:45;;;;;;;1.67;0.93;;;;;;;3.88;83.33;99895.78;5092640;28;20526;-63
2023/03/13 05:51:14;;;;;;;0.47;0.47;;;;;;;4.32;82.76;99894.34;5092576;28;20198;-59
2023/03/13 05:53:41;;;;;;;0.63;0.63;;;;;;;4.63;80.22;99900.91;5092821;28;20218;-63
2023/03/13 05:56:07;;;;;;;2.50;1.10;;;;;;;4.98;78.84;99902.19;5092416;28;20194;-58
2023/03/13 05:58:34;;;;;;;2.00;0.87;;;;;;;5.26;75.98;99896.06;5092440;28;20222;-62
2023/03/13 06:01:06;;;;;;;7.10;1.50;;;;;;;5.44;74.18;99899.66;5092176;28;20225;-63
2023/03/13 06:03:33;;;;;;;0.47;0.43;;;;;;;5.76;73.37;99900.09;5092410;28;20225;-63
2023/03/13 06:06:00;;;;;;;0.87;0.87;;;;;;;6.13;70.55;99900.31;5092483;28;20201;-58
2023/03/13 06:08:29;;;;;;;3.20;1.57;;;;;;;6.34;68.38;99897.75;5092261;28;20698;-63
2023/03/13 06:10:59;;;;;;;1.33;0.87;;;;;;;6.41;67.92;99901.72;5092146;28;20208;-63
2023/03/13 06:13:26;;;;;;;1.43;1.03;;;;;;;6.66;67.50;99893.03;5092523;28;20214;-58
2023/03/13 06:15:54;;;;;;;2.67;1.47;;;;;;;7.04;66.83;99893.91;5092083;28;20201;-63
2023/03/13 06:18:21;;;;;;;1.13;1.03;;;;;;;7.33;64.70;99879.88;5091957;28;20232;-59
2023/03/13 06:20:48;;;;;;;1.70;0.90;;;;;;;7.47;62.53;99881.75;5092164;28;20225;-58
2023/03/13 06:23:15;;;;;;;1.47;1.23;;;;;;;7.38;61.60;99877.94;5092335;28;20244;-62
2023/03/13 06:25:47;;;;;;;1.30;1.20;;;;;;;7.41;61.64;99871.88;5090679;28;20197;-62
2023/03/13 06:28:14;;;;;;;1.30;1.20;;;;;;;7.41;62.30;99872.69;5091983;28;20226;-62
2023/03/13 06:30:41;;;;;;;1.47;1.00;;;;;;;7.59;63.32;99870.19;5091906;28;20216;-62
2023/03/13 06:33:08;;;;;;;1.37;0.93;;;;;;;7.83;62.88;99878.38;5092201;28;20222;-63
2023/03/13 06:35:35;;;;;;;1.23;1.13;;;;;;;8.31;61.06;99882.78;5091822;28;20204;-63
2023/03/13 06:38:02;;;;;;;2.57;1.03;;;;;;;8.50;59.25;99879.34;5091688;28;20229;-62
2023/03/13 06:40:28;;;;;;;1.03;1.00;;;;;;;8.79;59.12;99878.66;5091681;28;20236;-59
2023/03/13 06:42:57;;;;;;;0.90;0.80;;;;;;;8.63;57.19;99875.25;5091706;28;20240;-64
2023/03/13 06:45:24;;;;;;;1.07;1.00;;;;;;;8.65;58.39;99878.56;5091546;28;20198;-64
2023/03/13 06:47:51;;;;;;;1.63;1.00;;;;;;;9.19;57.60;99888.47;5091415;28;20303;-64
2023/03/13 06:50:18;;;;;;;1.43;1.00;;;;;;;9.20;56.87;99880.75;5091583;28;20206;-59
2023/03/13 06:52:46;;;;;;;1.90;1.23;;;;;;;9.62;56.76;99886.97;5091752;28;20236;-58
2023/03/13 06:55:13;;;;;;;0.87;0.87;;;;;;;9.95;55.78;99888.56;5091538;28;20198;-59
2023/03/13 06:57:40;;;;;;;1.23;1.13;;;;;;;10.23;55.04;99897.19;5091392;28;20236;-59
2023/03/13 07:00:11;;;;;;;1.80;1.13;;;;;;;10.17;54.78;99896.63;5091121;28;20233;-59
2023/03/13 07:02:38;;;;;;;2.00;1.40;;;;;;;10.02;54.84;99889.84;5091498;28;20221;-59
2023/03/13 07:05:06;;;;;;;2.17;1.43;;;;;;;9.67;52.84;99881.63;5091279;28;20194;-64
2023/03/13 07:07:33;;;;;;;2.10;1.33;;;;;;;10.25;55.00;99885.97;5091348;28;20218;-64
2023/03/13 07:10:01;;;;;;;2.63;1.70;;;;;;;10.30;52.43;99888.28;5091144;28;20190;-64
2023/03/13 07:12:27;;;;;;;2.13;1.33;;;;;;;10.46;53.41;99889.03;5091055;28;20585;-64
2023/03/13 07:14:54;;;;;;;3.20;1.43;;;;;;;10.56;52.09;99879.91;5090989;28;20198;-64
2023/03/13 07:17:23;;;;;;;2.90;1.70;;;;;;;11.01;52.30;99890.00;5090881;28;20210;-64
2023/03/13 07:19:49;;;;;;;2.30;1.57;;;;;;;11.40;51.96;99886.69;5090935;28;20229;-64
2023/03/13 07:22:16;;;;;;;3.07;1.83;;;;;;;11.76;51.37;99887.88;5091128;28;20710;-64
2023/03/13 07:24:43;;;;;;;2.90;1.67;;;;;;;11.89;49.55;99888.72;5090883;28;20204;-64
2023/03/13 07:27:10;;;;;;;2.33;1.80;;;;;;;12.18;49.50;99883.44;5090712;28;20229;-59
2023/03/13 07:29:37;;;;;;;2.20;1.83;;;;;;;11.60;50.12;99889.75;5090766;28;20197;-59
2023/03/13 07:32:04;;;;;;;2.93;1.67;;;;;;;11.73;50.49;99893.19;5090696;28;20201;-59
2023/03/13 07:34:32;;;;;;;2.87;1.87;;;;;;;11.84;49.09;99895.03;5090733;28;20212;-59
2023/03/13 07:36:59;;;;;;;3.47;1.87;;;;;;;12.20;50.23;99886.75;5090064;28;20206;-59
2023/03/13 07:39:26;;;;;;;2.55;1.65;;;;;;;12.40;50.74;99888.81;5090494;28;20725;-64
2023/03/13 07:41:53;;;;;;;2.43;1.67;;;;;;;12.85;49.53;99889.16;5090529;28;20198;-64
2023/03/13 07:44:20;;;;;;;2.77;1.73;;;;;;;12.60;50.85;99884.09;5090519;28;20198;-59
2023/03/13 07:46:48;;;;;;;2.37;1.60;;;;;;;13.09;48.94;99891.78;5090603;28;20210;-64
2023/03/13 07:49:16;;;;;;;3.40;1.60;;;;;;;13.42;49.56;99895.50;5090551;28;20205;-59
2023/03/13 07:51:46;;;;;;;2.53;1.77;;;;;;;13.01;46.03;99893.25;5090393;28;20236;-64
2023/03/13 07:54:13;;;;;;;1.73;1.60;;;;;;;13.13;49.05;99897.53;5090430;28;20230;-65
2023/03/13 07:56:40;;;;;;;3.90;1.90;;;;;;;13.42;48.79;99898.06;5090280;28;20713;-65
2023/03/13 07:59:07;;;;;;;3.50;2.17;;;;;;;13.61;48.39;99900.13;5090162;28;20226;-59
2023/03/13 08:01:34;;;;;;;2.37;2.00;;;;;;;14.01;45.80;99899.81;5090199;28;20231;-60
2023/03/13 08:04:01;;;;;;;2.20;1.70;;;;;;;13.55;49.52;99903.16;5090108;28;20717;-65
2023/03/13 08:06:30;;;;;;;3.47;2.27;;;;;;;14.10;46.72;99901.72;5089841;28;20201;-64
2023/03/13 08:09:00;;;;;;;3.00;2.00;;;;;;;14.66;47.99;99896.69;5090230;28;20231;-65
2023/03/13 08:11:28;;;;;;;4.40;2.07;;;;;;;14.58;46.49;99899.00;5090055;28;20200;-59
2023/03/13 08:13:56;;;;;;;4.93;2.00;;;;;;;14.37;45.68;99896.28;5089950;28;20217;-59
2023/03/13 08:16:24;;;;;;;2.20;2.00;;;;;;;13.94;46.69;99903.78;5090254;28;20204;-59
2023/03/13 08:18:54;;;;;;;2.80;1.93;;;;;;;13.90;45.44;99902.34;5089588;28;20224;-59
2023/03/13 08:21:23;;;;;;;2.73;2.03;;;;;;;13.90;45.55;99898.03;5089924;28;20227;-65
2023/03/13 08:23:53;;;;;;;4.17;1.93;;;;;;;14.34;46.67;99895.66;5089648;28;20216;-65
2023/03/13 08:26:23;;;;;;;2.00;1.77;;;;;;;14.75;45.25;99889.16;5090028;28;20664;-65
2023/03/13 08:28:54;;;;;;;4.33;2.27;;;;;;;15.28;45.67;99886.75;5089497;28;20534;-65
2023/03/13 08:31:23;;;;;;;3.03;2.03;;;;;;;15.09;48.66;99885.63;5089929;28;20198;-59
2023/03/13 08:33:51;;;;;;;3.80;1.93;;;;;;;15.60;43.64;99886.78;5089484;28;20218;-60
2023/03/13 08:36:20;;;;;;;5.13;2.27;;;;;;;15.88;42.85;99887.13;5090004;28;20553;-59
2023/03/13 08:38:48;;;;;;;3.37;2.33;;;;;;;15.70;45.01;99876.56;5089810;28;20217;-60
2023/03/13 08:41:16;;;;;;;2.80;1.97;;;;;;;15.64;42.67;99872.69;5089512;28;20237;-65
2023/03/13 08:43:45;;;;;;;3.13;2.13;;;;;;;16.21;41.91;99875.81;5089582;28;20215;-65
2023/03/13 08:46:12;;;;;;;3.40;2.03;;;;;;;16.22;39.75;99870.53;5089672;28;20209;-65
2023/03/13 08:48:39;;;;;;;3.63;2.60;;;;;;;16.06;42.64;99877.91;5088583;28;20214;-65
2023/03/13 08:51:08;;;;;;;3.23;2.07;;;;;;;16.85;40.95;99878.16;5089580;28;20453;-65
2023/03/13 08:53:37;;;;;;;4.17;2.00;;;;;;;17.37;41.57;99878.78;5089385;28;20216;-65
2023/03/13 08:56:05;;;;;;;3.30;2.17;;;;;;;17.24;39.54;99880.00;5089601;28;20201;-65
2023/03/13 08:58:32;;;;;;;2.57;2.00;;;;;;;16.95;39.66;99886.72;5089654;28;20222;-59
2023/03/13 09:01:04;;;;;;;3.23;2.20;;;;;;;15.79;43.31;99883.53;5089269;28;20712;-65
2023/03/13 09:03:31;;;;;;;3.80;2.30;;;;;;;15.62;42.50;99884.91;5089489;28;20216;-65
2023/03/13 09:05:59;;;;;;;3.50;2.30;;;;;;;16.28;39.53;99876.94;5089362;28;20205;-65
2023/03/13 09:08:27;;;;;;;2.67;1.90;;;;;;;16.40;41.34;99875.09;5089345;28;20216;-65
2023/03/13 09:10:57;;;;;;;3.70;2.33;;;;;;;17.05;41.20;99879.03;5089426;28;20203;-65
2023/03/13 09:13:25;;;;;;;4.07;2.00;;;;;;;16.65;40.11;99876.44;5089234;28;20228;-65
2023/03/13 09:15:55;;;;;;;6.17;2.50;;;;;;;17.11;41.55;99881.06;5089324;28;20195;-65
2023/03/13 09:18:24;;;;;;;4.90;2.20;;;;;;;16.01;43.68;99869.72;5089329;28;20221;-65
2023/03/13 09:20:51;;;;;;;2.70;2.00;;;;;;;16.37;42.07;99878.75;5088987;28;20621;-65
2023/03/13 09:23:19;;;;;;;4.00;2.37;;;;;;;15.14;38.73;99873.19;5089358;28;20221;-65
2023/03/13 09:25:46;;;;;;;3.27;1.97;;;;;;;15.87;41.59;99868.28;5089171;28;20194;-65
2023/03/13 09:28:13;;;;;;;3.77;2.50;;;;;;;15.56;41.87;99870.75;5089143;28;20215;-60
2023/03/13 09:30:39;;;;;;;3.17;2.00;;;;;;;15.21;42.47;99860.66;5089034;28;20203;-65
2023/03/13 09:33:06;;;;;;;3.47;2.43;;;;;;;14.78;42.31;99873.50;5088962;28;20228;-65
2023/03/13 09:35:35;;;;;;;6.03;2.00;;;;;;;15.55;42.43;99876.81;5088910;28;20195;-64
2023/03/13 09:38:01;;;;;;;3.33;2.10;;;;;;;16.24;43.30;99866.06;5089081;28;20227;-60
2023/03/13 09:40:28;;;;;;;2.07;1.70;;;;;;;16.58;41.38;99862.38;5088970;28;20229;-60
2023/03/13 09:42:59;;;;;;;3.73;2.17;;;;;;;16.87;39.38;99853.03;5088941;28;20720;-60
2023/03/13 09:45:32;;;;;;;3.80;2.00;;;;;;;17.58;39.90;99857.16;5089154;28;20208;-60
2023/03/13 09:48:04;;;;;;;3.90;2.03;;;;;;;17.52;39.88;99857.72;5088913;28;20217;-65
2023/03/13 09:50:36;;;;;;;2.50;1.70;;;;;;;17.26;39.82;99858.25;5088894;28;20201;-60
2023/03/13 09:53:14;;;;;;;2.50;1.80;;;;;;;17.39;41.26;99848.47;5089075;28;20219;-60
2023/03/13 09:55:44;;;;;;;2.73;2.00;;;;;;;17.35;39.09;99851.44;5088903;28;20202;-65
2023/03/13 09:58:17;;;;;;;3.23;1.87;;;;;;;17.14;36.65;99849.00;5088953;28;20223;-65
2023/03/13 10:00:48;;;;;;;2.70;1.90;;;;;;;16.40;36.14;99850.09;5090791;28;20229;-65
2023/03/13 10:03:19;;;;;;;2.63;1.90;;;;;;;16.26;41.66;99837.53;5092744;28;20218;-59
2023/03/13 10:05:51;;;;;;;2.70;2.03;;;;;;;16.79;39.75;99839.13;5092475;28;20235;-60
2023/03/13 10:08:20;;;;;;;2.43;1.60;;;;;;;15.65;38.61;99837.41;5092392;28;20214;-60
2023/03/13 10:10:51;;;;;;;2.90;1.83;;;;;;;16.12;41.07;99837.91;5092412;28;20193;-60
2023/03/13 10:13:22;;;;;;;3.90;2.03;;;;;;;16.30;37.86;99833.75;5092400;28;20219;-60
2023/03/13 10:15:54;;;;;;;2.30;1.87;;;;;;;16.69;41.23;99824.38;5092247;28;20212;-60
2023/03/13 10:18:23;;;;;;;3.00;2.20;;;;;;;17.48;40.71;99836.47;5092075;28;20241;-60
2023/03/13 10:20:55;;;;;;;3.67;2.37;;;;;;;17.99;39.74;99835.34;5092115;28;20235;-60
2023/03/13 10:23:28;;;;;;;2.83;2.20;;;;;;;17.70;37.69;99830.19;5091934;28;20223;-60
2023/03/13 10:25:55;;;;;;;2.73;1.83;;;;;;;18.01;37.68;99827.47;5092165;28;20205;-59
2023/03/13 10:28:22;;;;;;;2.70;1.73;;;;;;;18.18;37.98;99828.47;5091836;28;20220;-60
2023/03/13 10:30:51;;;;;;;2.53;2.07;;;;;;;18.18;38.03;99813.78;5091843;28;20196;-60
2023/03/13 10:33:21;;;;;;;2.53;1.80;;;;;;;18.24;39.12;99813.22;5092003;28;20277;-60
2023/03/13 10:36:02;;;;;;;2.80;2.07;;;;;;;17.14;39.82;99813.63;5092194;28;20205;-60
2023/03/13 10:38:29;;;;;;;4.17;2.20;;;;;;;15.44;37.45;99807.28;5092105;28;20602;-60
2023/03/13 10:41:02;;;;;;;3.20;1.90;;;;;;;13.54;42.71;99798.75;5091648;28;20252;-60
2023/03/13 10:43:29;;;;;;;2.43;1.83;;;;;;;14.79;43.96;99797.91;5091631;28;20214;-65
2023/03/13 10:45:56;;;;;;;6.53;1.90;;;;;;;15.77;43.20;99797.78;5091652;28;20292;-60
2023/03/13 10:48:26;;;;;;;5.33;2.47;;;;;;;16.61;36.09;99792.41;5091676;28;20725;-60
2023/03/13 10:50:56;;;;;;;2.83;1.87;;;;;;;16.85;41.72;99790.34;5091352;28;20212;-60
2023/03/13 10:53:33;;;;;;;3.40;1.97;;;;;;;16.28;37.66;99789.19;5091384;28;20714;-60
2023/03/13 10:56:08;;;;;;;1.93;1.63;;;;;;;17.01;39.42;99786.41;5091538;28;20197;-60
2023/03/13 10:58:40;;;;;;;3.23;2.20;;;;;;;16.32;36.50;99777.69;5091297;28;20714;-64
2023/03/13 11:01:17;;;;;;;3.27;2.13;;;;;;;16.37;42.52;99767.75;5091021;28;20232;-65
2023/03/13 11:03:44;;;;;;;3.23;1.60;;;;;;;15.62;40.04;99771.47;5091317;28;20217;-60
2023/03/13 11:06:25;;;;;;;3.17;2.10;;;;;;;16.02;42.79;99765.59;5091305;28;20197;-60
2023/03/13 11:09:02;;;;;;;2.40;1.83;;;;;;;14.68;40.63;99771.25;5091531;28;20308;-64
2023/03/13 11:11:29;;;;;;;2.70;1.93;;;;;;;15.10;39.89;99762.84;5090469;28;20190;-65
2023/03/13 11:14:08;;;;;;;3.37;1.80;;;;;;;15.08;39.59;99752.63;5091296;28;20225;-65
2023/03/13 11:16:44;;;;;;;3.63;2.10;;;;;;;16.06;42.44;99744.59;5090975;28;20193;-64
2023/03/13 11:19:34;;;;;;;3.20;2.10;;;;;;;16.25;37.01;99751.56;5090944;28;20233;-65
2023/03/13 11:22:11;;;;;;;3.40;2.03;;;;;;;16.95;38.76;99755.00;5091090;28;20222;-60
2023/03/13 11:24:46;;;;;;;4.00;1.67;;;;;;;18.00;38.77;99737.84;5090821;28;20206;-60
2023/03/13 11:27:23;;;;;;;2.87;2.00;;;;;;;15.60;35.40;99732.94;5091096;28;20214;-65
2023/03/13 11:30:00;;;;;;;2.97;1.67;;;;;;;14.97;38.61;99726.94;5091028;28;20234;-60
2023/03/13 11:32:33;;;;;;;2.77;1.60;;;;;;;14.73;41.10;99726.31;5090787;28;20222;-59
2023/03/13 11:35:07;;;;;;;2.57;2.00;;;;;;;14.89;39.73;99719.84;5090938;28;20194;-64
2023/03/13 11:37:38;;;;;;;3.07;1.90;;;;;;;16.22;37.63;99717.47;5091029;28;20318;-64
2023/03/13 11:40:19;;;;;;;1.93;1.70;;;;;;;17.04;38.65;99718.97;5090604;28;20202;-60